Time;durP1;ratioP1;P1;durP2;ratioP2;P2;SDS_P1;SDS_P2;PMS_P1;PMS_P2;Temp;Humidity;BMP_temperature;BMP_pressure;BME280_temperature;BME280_humidity;BME280_pressure;Samples;Min_cycle;Max_cycle;Signal;HPM_P1;HPM_P2
2022/11/23 00:01:26;;;;;;;6.63;3.03;;;3.20;99.90;;;;;;4981339;28;20187;-89
2022/11/23 00:03:54;;;;;;;6.83;2.80;;;3.30;99.90;;;;;;4981114;28;20265;-87
2022/11/23 00:06:21;;;;;;;12.83;3.33;;;3.30;99.90;;;;;;4980532;28;20284;-90
2022/11/23 00:08:48;;;;;;;7.83;2.63;;;3.40;99.90;;;;;;4980907;28;20190;-88
2022/11/23 00:11:14;;;;;;;7.40;3.10;;;3.50;99.90;;;;;;4992966;28;20258;-91
2022/11/23 00:13:40;;;;;;;5.63;2.47;;;3.50;99.90;;;;;;5020438;28;20179;-90
2022/11/23 00:16:13;;;;;;;9.03;2.60;;;3.50;99.90;;;;;;5019808;28;20200;-89
2022/11/23 00:18:38;;;;;;;5.10;2.70;;;3.60;99.90;;;;;;5018667;28;20205;-90
2022/11/23 00:21:09;;;;;;;4.70;2.60;;;3.60;99.90;;;;;;5016618;28;20183;-92
2022/11/23 00:23:35;;;;;;;9.30;2.63;;;3.70;99.90;;;;;;5017631;28;20170;-89
2022/11/23 00:26:02;;;;;;;11.60;3.13;;;3.70;99.90;;;;;;5016458;28;20187;-89
2022/11/23 00:28:27;;;;;;;9.23;3.17;;;3.70;99.90;;;;;;5016255;28;20211;-91
2022/11/23 00:30:53;;;;;;;5.97;2.87;;;3.70;99.90;;;;;;5017518;28;20551;-89
2022/11/23 00:33:19;;;;;;;5.10;2.50;;;3.70;99.90;;;;;;5016722;28;20183;-88
2022/11/23 00:35:44;;;;;;;7.13;2.93;;;3.80;99.90;;;;;;5018385;28;20178;-87
2022/11/23 00:38:18;;;;;;;5.77;2.80;;;3.70;99.90;;;;;;5018778;28;20620;-87
2022/11/23 00:40:44;;;;;;;6.07;2.87;;;3.70;99.90;;;;;;5019377;28;20166;-87
2022/11/23 00:43:09;;;;;;;6.03;2.50;;;3.60;99.90;;;;;;5036963;28;20171;-88
2022/11/23 00:45:35;;;;;;;8.73;3.10;;;3.60;99.90;;;;;;5019319;28;20273;-89
2022/11/23 00:48:03;;;;;;;6.97;2.83;;;3.50;99.90;;;;;;5018918;28;20211;-87
2022/11/23 00:50:29;;;;;;;4.80;2.60;;;3.50;99.90;;;;;;5015507;28;20252;-86
2022/11/23 00:52:54;;;;;;;6.60;2.53;;;3.50;99.90;;;;;;5015897;28;20618;-86
2022/11/23 00:55:20;;;;;;;9.93;3.73;;;3.40;99.90;;;;;;5020029;28;20193;-86
2022/11/23 00:57:47;;;;;;;6.17;2.77;;;3.30;99.90;;;;;;5019265;28;20232;-88
2022/11/23 01:00:13;;;;;;;7.77;2.70;;;3.30;99.90;;;;;;5018710;28;20182;-88
2022/11/23 01:02:39;;;;;;;7.40;2.83;;;3.30;99.90;;;;;;5018196;28;20193;-89
2022/11/23 01:05:04;;;;;;;6.13;2.87;;;3.20;99.90;;;;;;5018238;28;20182;-88
2022/11/23 01:07:35;;;;;;;4.13;2.57;;;3.20;99.90;;;;;;5018875;28;20214;-88
2022/11/23 01:10:01;;;;;;;6.67;2.77;;;3.20;99.90;;;;;;5019078;28;20229;-90
2022/11/23 01:12:28;;;;;;;5.60;2.53;;;3.20;99.90;;;;;;5036422;28;20222;-89
2022/11/23 01:14:54;;;;;;;5.70;2.93;;;3.20;99.90;;;;;;5019054;28;20194;-90
2022/11/23 01:17:20;;;;;;;9.60;2.60;;;3.20;99.90;;;;;;5018586;28;20174;-87
2022/11/23 01:19:45;;;;;;;4.80;2.50;;;3.20;99.90;;;;;;5018484;28;20648;-91
2022/11/23 01:22:11;;;;;;;4.93;2.57;;;3.20;99.90;;;;;;5018640;28;20187;-89
2022/11/23 01:24:37;;;;;;;6.40;2.70;;;3.20;99.90;;;;;;5018692;28;20182;-91
2022/11/23 01:27:02;;;;;;;6.03;2.10;;;3.20;99.90;;;;;;5018531;28;20210;-90
2022/11/23 01:29:29;;;;;;;5.73;2.40;;;3.10;99.90;;;;;;5018359;28;20186;-89
2022/11/23 01:31:55;;;;;;;6.87;2.63;;;3.10;99.90;;;;;;5018480;28;20189;-89
2022/11/23 01:34:21;;;;;;;6.00;2.13;;;3.10;99.90;;;;;;5018491;28;20194;-90
2022/11/23 01:36:47;;;;;;;8.50;2.73;;;3.00;99.90;;;;;;5035694;28;20629;-89
2022/11/23 01:39:13;;;;;;;4.87;2.47;;;3.00;99.90;;;;;;5018299;28;20182;-90
2022/11/23 01:41:41;;;;;;;6.53;2.40;;;3.10;99.90;;;;;;5018372;28;20175;-91
2022/11/23 01:44:25;;;;;;;3.97;2.30;;;3.00;99.90;;;;;;5018361;28;20182;-90
2022/11/23 01:46:51;;;;;;;10.30;2.33;;;3.10;99.90;;;;;;5018165;28;20294;-90
2022/11/23 01:49:17;;;;;;;11.10;2.43;;;3.10;99.90;;;;;;5018278;28;20186;-89
2022/11/23 01:51:47;;;;;;;5.90;2.30;;;3.20;99.90;;;;;;5017948;28;20740;-90
2022/11/23 01:56:55;;;;;;;11.20;2.50;;;3.20;99.90;;;;;;5005587;28;20300;-81
2022/11/23 01:59:22;;;;;;;7.63;2.50;;;3.20;99.90;;;;;;5012927;28;20234;-81
2022/11/23 02:01:48;;;;;;;4.37;2.37;;;3.20;99.90;;;;;;5014019;28;20531;-82
2022/11/23 02:04:28;;;;;;;5.40;2.40;;;3.20;99.90;;;;;;4996559;28;20186;-83
2022/11/23 02:06:56;;;;;;;6.33;2.50;;;3.20;99.90;;;;;;4996359;28;20202;-81
2022/11/23 02:09:22;;;;;;;12.40;3.40;;;3.20;99.90;;;;;;4996219;28;20171;-80
2022/11/23 02:11:48;;;;;;;5.97;2.60;;;3.20;99.90;;;;;;5013400;28;20225;-81
2022/11/23 02:14:14;;;;;;;6.23;2.60;;;3.20;99.90;;;;;;5013953;28;20487;-82
2022/11/23 02:16:40;;;;;;;7.37;2.90;;;3.20;99.90;;;;;;5014082;28;20187;-82
2022/11/23 02:19:19;;;;;;;5.67;2.50;;;3.20;99.90;;;;;;5014072;28;20163;-83
2022/11/23 02:21:45;;;;;;;8.60;3.03;;;3.20;99.90;;;;;;5012695;28;20241;-82
2022/11/23 02:24:25;;;;;;;7.43;3.10;;;3.20;99.90;;;;;;4996350;28;20317;-82
2022/11/23 02:26:51;;;;;;;5.80;2.47;;;3.20;99.90;;;;;;4995603;28;20211;-81
2022/11/23 02:29:24;;;;;;;5.47;2.40;;;3.20;99.90;;;;;;5012769;28;20379;-82
2022/11/23 02:31:50;;;;;;;4.87;2.50;;;3.20;99.90;;;;;;4996321;28;20190;-81
2022/11/23 02:34:16;;;;;;;5.27;2.30;;;3.20;99.90;;;;;;4996249;28;20232;-82
2022/11/23 02:36:51;;;;;;;5.97;2.67;;;3.20;99.90;;;;;;4996084;28;20183;-82
2022/11/23 02:39:31;;;;;;;4.83;2.30;;;3.20;99.90;;;;;;4996549;28;20610;-81
2022/11/23 02:41:57;;;;;;;4.73;2.43;;;3.10;99.90;;;;;;5010157;28;20186;-81
2022/11/23 02:44:35;;;;;;;5.90;2.50;;;3.20;99.90;;;;;;5019738;28;20182;-81
2022/11/23 02:47:01;;;;;;;5.87;2.40;;;3.20;99.90;;;;;;5019437;28;20224;-81
2022/11/23 02:49:27;;;;;;;6.97;2.50;;;3.20;99.90;;;;;;5019609;28;20593;-81
2022/11/23 02:51:53;;;;;;;6.30;2.20;;;3.10;99.90;;;;;;5019502;28;20273;-81
2022/11/23 02:54:19;;;;;;;9.27;2.50;;;3.10;99.90;;;;;;5035576;28;20320;-81
2022/11/23 02:56:45;;;;;;;4.40;2.43;;;3.10;99.90;;;;;;5066709;28;20290;-80
2022/11/23 02:59:10;;;;;;;5.23;2.30;;;3.10;99.90;;;;;;5059269;28;20613;-81
2022/11/23 03:01:38;;;;;;;3.83;2.37;;;3.10;99.90;;;;;;5059144;28;20245;-83
2022/11/23 03:04:04;;;;;;;5.40;2.17;;;3.00;99.90;;;;;;5058922;28;20205;-82
2022/11/23 03:06:30;;;;;;;5.03;2.20;;;2.90;99.90;;;;;;5059088;28;20230;-82
2022/11/23 03:08:56;;;;;;;7.50;2.77;;;2.80;99.90;;;;;;5059373;28;20631;-82
2022/11/23 03:11:22;;;;;;;6.47;2.10;;;2.80;99.90;;;;;;5058875;28;20197;-81
2022/11/23 03:13:48;;;;;;;7.70;2.90;;;2.80;99.90;;;;;;5059016;28;20519;-82
2022/11/23 03:16:13;;;;;;;5.97;3.20;;;2.70;99.90;;;;;;5059023;28;20177;-82
2022/11/23 03:18:39;;;;;;;11.90;4.30;;;2.70;99.90;;;;;;5058975;28;20275;-83
2022/11/23 03:21:07;;;;;;;9.37;4.10;;;2.70;99.90;;;;;;5077160;28;20165;-82
2022/11/23 03:23:34;;;;;;;7.27;3.17;;;2.60;99.90;;;;;;5076827;28;20224;-82
2022/11/23 03:26:00;;;;;;;5.60;2.50;;;2.60;99.90;;;;;;5064215;28;20190;-81
2022/11/23 03:28:26;;;;;;;6.90;2.90;;;2.60;99.90;;;;;;5038735;28;20663;-82
2022/11/23 03:30:52;;;;;;;6.83;2.43;;;2.60;99.90;;;;;;5038802;28;20174;-82
2022/11/23 03:33:18;;;;;;;5.33;2.20;;;2.50;99.90;;;;;;5038421;28;20200;-82
2022/11/23 03:35:45;;;;;;;6.60;2.40;;;2.60;99.90;;;;;;5038646;28;20273;-82
2022/11/23 03:38:10;;;;;;;3.83;2.20;;;2.60;99.90;;;;;;5038620;28;20285;-82
2022/11/23 03:40:36;;;;;;;6.20;2.43;;;2.70;99.90;;;;;;5037428;28;20663;-81
2022/11/23 03:43:02;;;;;;;5.37;2.50;;;2.70;99.90;;;;;;5036360;28;20181;-82
2022/11/23 03:45:28;;;;;;;7.23;2.50;;;2.60;99.90;;;;;;5018693;28;20210;-82
2022/11/23 03:47:54;;;;;;;4.77;2.30;;;2.70;99.90;;;;;;5018565;28;20632;-82
2022/11/23 03:50:20;;;;;;;7.87;2.43;;;2.60;99.90;;;;;;5036519;28;20174;-82
2022/11/23 03:52:48;;;;;;;4.53;1.93;;;2.70;99.90;;;;;;5019674;28;20178;-82
2022/11/23 03:55:14;;;;;;;5.13;2.40;;;2.70;99.90;;;;;;5048602;28;20229;-81
2022/11/23 03:57:39;;;;;;;3.83;2.00;;;2.70;99.90;;;;;;5034773;28;20182;-81
2022/11/23 04:00:06;;;;;;;9.83;2.50;;;2.80;99.90;;;;;;5036154;28;20590;-81
2022/11/23 04:02:31;;;;;;;6.00;2.43;;;2.80;99.90;;;;;;5034649;28;20182;-81
2022/11/23 04:04:57;;;;;;;3.40;2.40;;;2.90;99.90;;;;;;5034838;28;20175;-81
2022/11/23 04:07:23;;;;;;;6.30;2.47;;;2.90;99.90;;;;;;5051236;28;20217;-81
2022/11/23 04:09:48;;;;;;;6.23;2.20;;;2.90;99.90;;;;;;5034784;28;20175;-81
2022/11/23 04:12:14;;;;;;;4.83;2.60;;;2.90;99.90;;;;;;5046181;28;20280;-80
2022/11/23 04:14:40;;;;;;;5.93;2.20;;;2.90;99.90;;;;;;5055783;28;20235;-81
2022/11/23 04:17:06;;;;;;;6.40;2.30;;;3.00;99.90;;;;;;5054189;28;20177;-81
2022/11/23 04:19:31;;;;;;;7.53;2.27;;;3.00;99.90;;;;;;5054622;28;20178;-81
2022/11/23 04:21:57;;;;;;;4.30;1.93;;;3.10;99.90;;;;;;5054467;28;20182;-82
2022/11/23 04:24:23;;;;;;;5.20;2.20;;;3.20;99.90;;;;;;5054227;28;20174;-82
2022/11/23 04:26:48;;;;;;;5.00;2.20;;;3.20;99.90;;;;;;5036208;28;20211;-81
2022/11/23 04:29:14;;;;;;;9.83;2.43;;;3.30;99.90;;;;;;5035700;28;20548;-82
2022/11/23 04:31:40;;;;;;;6.67;2.30;;;3.40;99.90;;;;;;5034360;28;20772;-82
2022/11/23 04:34:05;;;;;;;5.33;2.47;;;3.50;99.90;;;;;;5034432;28;20175;-81
2022/11/23 04:36:32;;;;;;;8.63;2.30;;;3.60;99.90;;;;;;5034275;28;20214;-81
2022/11/23 04:38:57;;;;;;;6.40;2.13;;;3.70;99.90;;;;;;5034500;28;20190;-82
2022/11/23 04:41:23;;;;;;;4.87;1.83;;;3.70;99.90;;;;;;5038569;28;20189;-81
2022/11/23 04:43:50;;;;;;;6.50;1.97;;;3.80;99.90;;;;;;5053961;28;20688;-82
2022/11/23 04:46:17;;;;;;;5.80;2.10;;;3.80;99.90;;;;;;5054079;28;20612;-82
2022/11/23 04:48:42;;;;;;;5.83;2.23;;;3.90;99.90;;;;;;5054125;28;20228;-82
2022/11/23 04:51:08;;;;;;;5.00;2.20;;;3.90;99.90;;;;;;5055323;28;20170;-82
2022/11/23 04:53:34;;;;;;;4.93;1.90;;;4.00;99.90;;;;;;5055277;28;20276;-82
2022/11/23 04:56:00;;;;;;;4.33;1.73;;;4.10;99.90;;;;;;5041251;28;20293;-81
2022/11/23 04:58:26;;;;;;;7.47;1.97;;;4.10;99.90;;;;;;5034967;28;20187;-81
2022/11/23 05:00:51;;;;;;;13.40;2.17;;;4.20;99.90;;;;;;5033482;28;20239;-81
2022/11/23 05:03:17;;;;;;;4.40;1.60;;;4.20;99.90;;;;;;5053354;28;20228;-81
2022/11/23 05:05:43;;;;;;;3.03;1.73;;;4.30;99.90;;;;;;5053341;28;20174;-81
2022/11/23 05:08:09;;;;;;;5.10;2.00;;;4.30;99.90;;;;;;5053496;28;20221;-82
2022/11/23 05:10:36;;;;;;;3.83;1.80;;;4.30;99.90;;;;;;5053199;28;20265;-82
2022/11/23 05:13:01;;;;;;;6.70;1.80;;;4.30;99.90;;;;;;5035887;28;20193;-81
2022/11/23 05:15:27;;;;;;;7.00;2.07;;;4.40;99.90;;;;;;5036826;28;20178;-82
2022/11/23 05:18:03;;;;;;;6.60;2.20;;;4.40;99.90;;;;;;5036388;28;20281;-82
2022/11/23 05:20:29;;;;;;;5.43;1.90;;;4.50;99.90;;;;;;5036739;28;20170;-83
2022/11/23 05:22:55;;;;;;;5.80;1.70;;;4.50;99.90;;;;;;5054333;28;20265;-81
2022/11/23 05:25:21;;;;;;;5.63;1.77;;;4.50;99.90;;;;;;5029629;28;20190;-81
2022/11/23 05:27:46;;;;;;;3.03;1.80;;;4.50;99.90;;;;;;5016635;28;20660;-82
2022/11/23 05:30:13;;;;;;;5.63;2.17;;;4.60;99.90;;;;;;5016813;28;20225;-82
2022/11/23 05:32:38;;;;;;;2.20;1.53;;;4.50;99.90;;;;;;5034366;28;20236;-82
2022/11/23 05:35:05;;;;;;;6.87;2.23;;;4.60;99.90;;;;;;5016771;28;20529;-83
2022/11/23 05:37:30;;;;;;;5.17;2.30;;;4.50;99.90;;;;;;5016608;28;20185;-82
2022/11/23 05:39:58;;;;;;;6.90;1.97;;;4.50;99.90;;;;;;5016559;28;20527;-81
2022/11/23 05:42:24;;;;;;;5.80;2.17;;;4.50;99.90;;;;;;5047301;28;20182;-82
2022/11/23 05:44:50;;;;;;;4.27;1.90;;;4.50;99.90;;;;;;5036392;28;20190;-82
2022/11/23 05:47:15;;;;;;;5.47;2.43;;;4.50;99.90;;;;;;5035911;28;20213;-82
2022/11/23 05:49:41;;;;;;;5.70;2.20;;;4.50;99.90;;;;;;5054098;28;20205;-82
2022/11/23 05:52:07;;;;;;;5.57;2.20;;;4.50;99.90;;;;;;5036090;28;20598;-80
2022/11/23 05:54:32;;;;;;;4.93;2.37;;;4.40;99.90;;;;;;5026771;28;20189;-82
2022/11/23 05:56:58;;;;;;;6.20;2.07;;;4.40;99.90;;;;;;5015200;28;20617;-82
2022/11/23 05:59:24;;;;;;;3.77;1.87;;;4.40;99.90;;;;;;5031577;28;20603;-81
2022/11/23 06:01:50;;;;;;;7.13;2.20;;;4.40;99.90;;;;;;5032193;28;20182;-81
2022/11/23 06:04:15;;;;;;;4.23;2.10;;;4.40;99.90;;;;;;5033357;28;20214;-82
2022/11/23 06:06:41;;;;;;;7.03;2.30;;;4.40;99.90;;;;;;5032425;28;20529;-82
2022/11/23 06:09:07;;;;;;;7.13;2.37;;;4.40;99.90;;;;;;5032503;28;20237;-82
2022/11/23 06:11:34;;;;;;;7.57;3.07;;;4.40;99.90;;;;;;5031501;28;20571;-81
2022/11/23 06:14:00;;;;;;;5.60;2.03;;;4.40;99.90;;;;;;5032368;28;20197;-82
2022/11/23 06:16:25;;;;;;;8.47;2.20;;;4.40;99.90;;;;;;5031341;28;20178;-81
2022/11/23 06:18:51;;;;;;;9.07;2.53;;;4.40;99.90;;;;;;5032620;28;20182;-82
2022/11/23 06:21:17;;;;;;;3.43;1.70;;;4.40;99.90;;;;;;5031494;28;20263;-81
2022/11/23 06:23:45;;;;;;;6.20;1.90;;;4.40;99.90;;;;;;5032141;28;20513;-81
2022/11/23 06:26:11;;;;;;;5.83;2.00;;;4.40;99.90;;;;;;5032635;28;20644;-81
2022/11/23 06:28:37;;;;;;;4.27;1.87;;;4.40;99.90;;;;;;5031592;28;20209;-81
2022/11/23 06:31:05;;;;;;;7.30;2.53;;;4.40;99.90;;;;;;5031001;28;20182;-82
2022/11/23 06:33:32;;;;;;;5.60;2.33;;;4.40;99.90;;;;;;5032268;28;20193;-82
2022/11/23 06:36:00;;;;;;;5.40;2.30;;;4.40;99.90;;;;;;5032685;28;20195;-82
2022/11/23 06:38:26;;;;;;;6.10;2.60;;;4.40;99.90;;;;;;5031697;28;20205;-83
2022/11/23 06:40:56;;;;;;;5.43;2.20;;;4.50;99.90;;;;;;5031374;28;20182;-82
2022/11/23 06:43:21;;;;;;;11.03;2.37;;;4.50;99.90;;;;;;5053279;28;20158;-82
2022/11/23 06:45:47;;;;;;;5.53;2.20;;;4.50;99.90;;;;;;5035578;28;20227;-82
2022/11/23 06:48:13;;;;;;;9.67;2.40;;;4.60;99.90;;;;;;5023964;28;20649;-82
2022/11/23 06:50:38;;;;;;;2.93;1.90;;;4.50;99.90;;;;;;5032520;28;20225;-82
2022/11/23 06:53:05;;;;;;;5.97;2.27;;;4.50;99.90;;;;;;5033155;28;20193;-81
2022/11/23 06:55:30;;;;;;;6.27;2.40;;;4.60;99.90;;;;;;5013144;28;20720;-81
2022/11/23 06:57:58;;;;;;;4.80;2.30;;;4.60;99.90;;;;;;5048269;28;20250;-81
2022/11/23 07:00:24;;;;;;;10.20;2.33;;;4.60;99.90;;;;;;5031309;28;20248;-81
2022/11/23 07:02:54;;;;;;;7.43;2.13;;;4.60;99.90;;;;;;5031430;28;20735;-81
2022/11/23 07:05:20;;;;;;;7.73;2.40;;;4.60;99.90;;;;;;5030986;28;20198;-81
2022/11/23 07:07:46;;;;;;;3.70;2.03;;;4.60;99.90;;;;;;5032734;28;20210;-81
2022/11/23 07:10:12;;;;;;;4.60;2.40;;;4.70;99.90;;;;;;5031436;28;20508;-81
2022/11/23 07:12:38;;;;;;;8.63;2.30;;;4.60;99.90;;;;;;5031698;28;20185;-81
2022/11/23 07:15:04;;;;;;;8.63;2.40;;;4.60;99.90;;;;;;5031502;28;20182;-81
2022/11/23 07:17:30;;;;;;;5.00;2.00;;;4.60;99.90;;;;;;5031436;28;20217;-80
2022/11/23 07:19:55;;;;;;;7.43;2.17;;;4.60;99.90;;;;;;5032796;28;20594;-81
2022/11/23 07:22:21;;;;;;;7.60;2.43;;;4.60;99.90;;;;;;5031738;28;20571;-82
2022/11/23 07:24:47;;;;;;;5.70;2.67;;;4.60;99.90;;;;;;5032644;28;20259;-81
2022/11/23 07:27:12;;;;;;;4.03;2.20;;;4.60;99.90;;;;;;5032984;28;20198;-81
2022/11/23 07:29:38;;;;;;;7.23;2.40;;;4.60;99.90;;;;;;5035480;28;20190;-81
2022/11/23 07:32:06;;;;;;;5.67;2.40;;;4.60;99.90;;;;;;5035153;28;20225;-81
2022/11/23 07:34:31;;;;;;;5.00;2.30;;;4.60;99.90;;;;;;5034196;28;20607;-81
2022/11/23 07:36:57;;;;;;;6.77;2.30;;;4.60;99.90;;;;;;5035806;28;20175;-81
2022/11/23 07:39:23;;;;;;;6.40;2.13;;;4.60;99.90;;;;;;5036246;28;20585;-81
2022/11/23 07:41:48;;;;;;;6.23;1.90;;;4.60;99.90;;;;;;5042758;28;20496;-81
2022/11/23 07:44:14;;;;;;;4.70;2.07;;;4.70;99.90;;;;;;5037902;28;20189;-82
2022/11/23 07:46:40;;;;;;;5.13;2.30;;;4.60;99.90;;;;;;5055582;28;20190;-81
2022/11/23 07:49:05;;;;;;;4.07;2.00;;;4.60;99.90;;;;;;5038110;28;20501;-81
2022/11/23 07:51:32;;;;;;;4.70;2.00;;;4.70;99.90;;;;;;5038187;28;20217;-81
2022/11/23 07:53:58;;;;;;;8.53;2.50;;;4.70;99.90;;;;;;5037949;28;20232;-81
2022/11/23 07:56:24;;;;;;;6.70;2.33;;;4.70;99.90;;;;;;5022426;28;20674;-81
2022/11/23 07:58:50;;;;;;;7.67;2.40;;;4.80;99.90;;;;;;5018093;28;20546;-81
2022/11/23 08:01:17;;;;;;;3.60;2.10;;;4.80;99.90;;;;;;5034019;28;20178;-81
2022/11/23 08:03:47;;;;;;;4.03;2.10;;;4.90;99.90;;;;;;5033926;28;20181;-81
2022/11/23 08:06:13;;;;;;;5.97;1.93;;;5.00;99.90;;;;;;5035896;28;20525;-81
2022/11/23 08:08:39;;;;;;;7.00;2.10;;;5.00;99.90;;;;;;5035854;28;20260;-81
2022/11/23 08:11:06;;;;;;;6.50;3.03;;;5.00;99.90;;;;;;5017782;28;20179;-81
2022/11/23 08:13:36;;;;;;;2.90;1.60;;;5.00;99.90;;;;;;5017824;28;20600;-81
2022/11/23 08:16:02;;;;;;;9.30;2.20;;;5.10;99.90;;;;;;5017921;28;20179;-81
2022/11/23 08:18:28;;;;;;;4.90;1.97;;;5.10;99.90;;;;;;5017633;28;20190;-81
2022/11/23 08:20:54;;;;;;;6.87;2.27;;;5.20;99.90;;;;;;5018095;28;20186;-81
2022/11/23 08:23:20;;;;;;;6.17;2.13;;;5.20;99.90;;;;;;5035375;28;20586;-81
2022/11/23 08:25:46;;;;;;;6.60;2.27;;;5.20;99.90;;;;;;5035100;28;20186;-81
2022/11/23 08:28:11;;;;;;;5.60;2.40;;;5.30;99.90;;;;;;5035282;28;20598;-81
2022/11/23 08:30:38;;;;;;;4.63;2.20;;;5.40;99.90;;;;;;5035236;28;20181;-80
2022/11/23 08:33:08;;;;;;;5.17;2.30;;;5.50;99.90;;;;;;5035072;28;20175;-81
2022/11/23 08:35:35;;;;;;;3.80;1.70;;;5.60;99.90;;;;;;5035066;28;20178;-81
2022/11/23 08:38:01;;;;;;;4.40;2.23;;;5.60;99.90;;;;;;5016957;28;20178;-81
2022/11/23 08:40:27;;;;;;;4.50;2.00;;;5.70;99.90;;;;;;5016087;28;20179;-82
2022/11/23 08:42:53;;;;;;;3.50;1.80;;;5.70;99.90;;;;;;5047577;28;20190;-81
2022/11/23 08:45:19;;;;;;;8.07;2.00;;;5.80;99.90;;;;;;5043697;28;20186;-81
2022/11/23 08:47:45;;;;;;;5.33;1.97;;;5.90;99.90;;;;;;5017019;28;20567;-81
2022/11/23 08:50:11;;;;;;;7.10;2.00;;;5.90;99.90;;;;;;5016593;28;20189;-81
2022/11/23 08:52:36;;;;;;;4.03;1.83;;;5.90;99.90;;;;;;5034878;28;20163;-81
2022/11/23 08:55:02;;;;;;;6.70;2.10;;;5.90;99.90;;;;;;5034629;28;20284;-81
2022/11/23 08:57:28;;;;;;;7.67;1.90;;;5.90;99.90;;;;;;5034342;28;20175;-81
2022/11/23 08:59:54;;;;;;;8.53;2.10;;;5.90;99.90;;;;;;5017108;28;20187;-81
2022/11/23 09:02:19;;;;;;;4.67;1.90;;;5.90;99.90;;;;;;5016425;28;20641;-82
2022/11/23 09:04:45;;;;;;;8.97;2.13;;;5.90;99.90;;;;;;5016492;28;20525;-81
2022/11/23 09:07:11;;;;;;;4.77;1.93;;;5.90;99.90;;;;;;5016753;28;20661;-82
2022/11/23 09:09:37;;;;;;;4.13;1.90;;;5.90;99.90;;;;;;5017346;28;20280;-81
2022/11/23 09:12:03;;;;;;;4.60;2.13;;;6.00;99.90;;;;;;5016868;28;20187;-81
2022/11/23 09:14:29;;;;;;;5.90;1.93;;;6.00;99.90;;;;;;5031068;28;20277;-82
2022/11/23 09:16:54;;;;;;;6.27;1.80;;;6.00;99.90;;;;;;5033304;28;20273;-81
2022/11/23 09:19:20;;;;;;;7.13;2.10;;;6.10;99.90;;;;;;5029853;28;20582;-82
2022/11/23 09:21:46;;;;;;;6.43;1.77;;;6.20;99.90;;;;;;5014747;28;20183;-81
2022/11/23 09:24:12;;;;;;;5.97;1.80;;;6.20;99.90;;;;;;4997160;28;20187;-82
2022/11/23 09:26:38;;;;;;;4.93;2.30;;;6.40;99.90;;;;;;5030758;28;20197;-81
2022/11/23 09:29:05;;;;;;;5.07;2.40;;;6.50;99.90;;;;;;5016464;28;20179;-81
2022/11/23 09:31:31;;;;;;;5.27;2.00;;;6.60;99.90;;;;;;5016364;28;20171;-82
2022/11/23 09:33:56;;;;;;;4.67;1.83;;;6.70;99.90;;;;;;5016127;28;20175;-81
2022/11/23 09:36:22;;;;;;;5.43;2.37;;;6.80;99.90;;;;;;5033697;28;20204;-81
2022/11/23 09:38:49;;;;;;;8.40;2.50;;;6.80;99.90;;;;;;5016046;28;20181;-81
2022/11/23 09:41:24;;;;;;;9.37;1.87;;;6.90;99.90;;;;;;5033214;28;20265;-81
2022/11/23 09:44:01;;;;;;;6.53;2.00;;;7.00;99.90;;;;;;5037512;28;20173;-81
2022/11/23 09:46:57;;;;;;;4.73;1.77;;;7.00;99.90;;;;;;5035510;28;20662;-81
2022/11/23 09:49:39;;;;;;;6.40;1.90;;;7.10;99.90;;;;;;5035930;28;20236;-81
2022/11/23 09:52:14;;;;;;;3.80;1.67;;;7.10;99.90;;;;;;5035307;28;20613;-82
2022/11/23 09:54:43;;;;;;;5.40;1.60;;;7.30;99.90;;;;;;5035880;28;20263;-82
2022/11/23 09:57:15;;;;;;;7.63;1.83;;;7.40;99.90;;;;;;5048781;28;20193;-82
2022/11/23 09:59:46;;;;;;;3.40;1.20;;;7.60;99.90;;;;;;5055830;28;20168;-82
2022/11/23 10:02:24;;;;;;;3.83;1.40;;;7.70;99.90;;;;;;5054285;28;20547;-82
2022/11/23 10:04:52;;;;;;;4.33;1.33;;;7.80;99.90;;;;;;5035863;28;20181;-82
2022/11/23 10:07:23;;;;;;;4.13;1.73;;;7.90;99.90;;;;;;5054936;28;20201;-82
2022/11/23 10:10:25;;;;;;;9.63;1.30;;;8.00;99.90;;;;;;5056155;28;20185;-81
2022/11/23 10:13:18;;;;;;;4.37;1.30;;;8.30;99.90;;;;;;5072996;28;20677;-83
2022/11/23 10:16:21;;;;;;;5.40;1.30;;;8.40;99.90;;;;;;5073316;28;20169;-81
2022/11/23 10:19:19;;;;;;;7.43;1.53;;;8.50;99.90;;;;;;5073153;28;20184;-82
2022/11/23 10:22:01;;;;;;;3.80;1.47;;;8.60;99.90;;;;;;5073451;28;20162;-83
2022/11/23 10:24:34;;;;;;;5.03;1.50;;;8.70;99.90;;;;;;5073457;28;20166;-83
2022/11/23 10:27:02;;;;;;;4.65;1.40;;;8.70;99.90;;;;;;5032921;28;20213;-82
2022/11/23 10:29:35;;;;;;;4.67;1.40;;;8.70;99.90;;;;;;5015562;28;20624;-82
2022/11/23 10:32:03;;;;;;;3.47;1.00;;;8.70;99.90;;;;;;5015297;28;20605;-83
2022/11/23 10:35:06;;;;;;;2.87;1.30;;;8.70;99.90;;;;;;5014977;28;20221;-82
2022/11/23 10:37:32;;;;;;;4.60;1.30;;;8.80;99.90;;;;;;5015262;28;20174;-83
2022/11/23 10:39:58;;;;;;;4.33;1.47;;;8.80;99.90;;;;;;5015580;28;20221;-84
2022/11/23 10:42:57;;;;;;;4.03;1.40;;;8.70;99.90;;;;;;5024976;28;20181;-84
2022/11/23 10:45:25;;;;;;;4.10;1.27;;;8.80;99.90;;;;;;5021812;28;20193;-83
2022/11/23 10:47:54;;;;;;;4.60;1.60;;;8.70;99.90;;;;;;5035373;28;20558;-83
2022/11/23 10:50:24;;;;;;;6.10;1.50;;;8.80;99.90;;;;;;5052876;28;20509;-83
2022/11/23 10:53:07;;;;;;;5.17;1.10;;;8.70;99.90;;;;;;5035273;28;20186;-82
2022/11/23 10:55:46;;;;;;;8.27;1.70;;;8.70;99.90;;;;;;5034658;28;20780;-82
2022/11/23 10:58:41;;;;;;;5.90;1.50;;;8.70;99.90;;;;;;5034727;28;20200;-84
2022/11/23 11:01:21;;;;;;;4.45;1.15;;;8.70;99.90;;;;;;5035079;28;20471;-83
2022/11/23 11:03:47;;;;;;;3.13;1.47;;;8.70;99.90;;;;;;5037821;28;20232;-85
2022/11/23 11:06:32;;;;;;;5.17;1.60;;;8.60;99.90;;;;;;5039104;28;20268;-83
2022/11/23 11:09:00;;;;;;;6.47;1.30;;;8.60;99.90;;;;;;5056953;28;20198;-83
2022/11/23 11:11:33;;;;;;;7.70;1.57;;;8.60;99.90;;;;;;5038816;28;20605;-83
2022/11/23 11:14:05;;;;;;;5.53;1.33;;;8.70;99.90;;;;;;5039019;28;20664;-84
2022/11/23 11:16:36;;;;;;;3.47;1.05;;;8.70;99.90;;;;;;5036817;28;20582;-82
2022/11/23 11:19:30;;;;;;;5.13;1.30;;;8.80;99.90;;;;;;5056757;28;20181;-84
2022/11/23 11:21:57;;;;;;;9.07;1.53;;;8.80;99.90;;;;;;5038996;28;20180;-82
2022/11/23 11:24:31;;;;;;;3.83;1.45;;;8.80;99.90;;;;;;5056557;28;20228;-84
2022/11/23 11:27:00;;;;;;;8.10;1.42;;;8.90;99.90;;;;;;5055999;28;20204;-85
2022/11/23 11:29:30;;;;;;;4.97;1.47;;;8.90;99.90;;;;;;5038474;28;20190;-83
2022/11/23 11:32:07;;;;;;;5.20;1.40;;;8.90;99.90;;;;;;5056662;28;20170;-84
2022/11/23 11:34:49;;;;;;;4.47;1.23;;;9.00;99.90;;;;;;5038872;28;20181;-84
2022/11/23 11:37:43;;;;;;;2.87;1.13;;;9.00;99.90;;;;;;5038639;28;20178;-84
2022/11/23 11:40:20;;;;;;;6.00;1.17;;;8.90;99.90;;;;;;5036566;28;20159;-82
2022/11/23 11:42:58;;;;;;;4.93;1.50;;;8.90;99.90;;;;;;5051373;28;20189;-84
2022/11/23 11:45:30;;;;;;;5.33;1.17;;;8.90;99.90;;;;;;5076681;28;20169;-84
2022/11/23 11:48:22;;;;;;;3.42;1.10;;;9.00;99.90;;;;;;5075888;28;20219;-84
2022/11/23 11:50:54;;;;;;;8.37;1.00;;;9.00;99.90;;;;;;5075807;28;20223;-84
2022/11/23 11:53:24;;;;;;;6.78;1.17;;;9.00;99.90;;;;;;5076241;28;20177;-85
2022/11/23 11:55:52;;;;;;;4.37;0.93;;;8.90;99.90;;;;;;5067118;28;20317;-84
2022/11/23 11:58:21;;;;;;;3.67;1.20;;;8.90;99.90;;;;;;5076050;28;20311;-85
2022/11/23 12:00:49;;;;;;;2.77;0.97;;;9.00;99.90;;;;;;5075868;28;20182;-85
2022/11/23 12:03:44;;;;;;;3.55;0.98;;;8.90;99.90;;;;;;5057519;28;20193;-84
2022/11/23 12:06:17;;;;;;;3.38;1.17;;;9.00;99.90;;;;;;5057794;28;20201;-87
2022/11/23 12:09:08;;;;;;;3.33;1.30;;;8.90;99.90;;;;;;5076328;28;20248;-84
2022/11/23 12:11:35;;;;;;;6.03;1.30;;;8.90;99.90;;;;;;5075935;28;20192;-83
2022/11/23 12:14:04;;;;;;;4.67;1.40;;;9.00;99.90;;;;;;5058343;28;20173;-85
2022/11/23 12:16:30;;;;;;;4.27;0.90;;;8.90;99.90;;;;;;5058269;28;20177;-85
2022/11/23 12:19:26;;;;;;;2.80;0.93;;;8.90;99.90;;;;;;5058297;28;20676;-85
2022/11/23 12:21:57;;;;;;;4.13;1.00;;;8.90;99.90;;;;;;5057774;28;20281;-85
2022/11/23 12:25:01;;;;;;;4.57;1.37;;;8.90;99.90;;;;;;5057473;28;20185;-85
2022/11/23 12:27:51;;;;;;;3.87;0.90;;;8.90;99.90;;;;;;5017583;28;20641;-86
2022/11/23 12:30:22;;;;;;;2.63;0.90;;;9.00;99.90;;;;;;5028698;28;20280;-83
2022/11/23 12:33:09;;;;;;;5.17;1.10;;;9.00;99.90;;;;;;5075669;28;20157;-85
2022/11/23 12:35:46;;;;;;;3.53;1.17;;;9.10;99.90;;;;;;5057690;28;20217;-85
2022/11/23 12:38:27;;;;;;;2.20;1.00;;;9.20;99.90;;;;;;5075532;28;20169;-84
2022/11/23 12:41:11;;;;;;;3.40;1.20;;;9.30;99.90;;;;;;5075005;28;20176;-84
2022/11/23 12:44:01;;;;;;;2.33;1.00;;;9.20;99.90;;;;;;5057037;28;20212;-85
2022/11/23 12:46:27;;;;;;;2.97;1.10;;;9.30;99.90;;;;;;5075589;28;20177;-85
2022/11/23 12:49:11;;;;;;;3.50;0.80;;;9.20;99.90;;;;;;5057272;28;20208;-84
2022/11/23 12:51:49;;;;;;;4.25;0.82;;;9.20;99.90;;;;;;5054966;28;20605;-86
2022/11/23 12:54:24;;;;;;;3.13;0.90;;;9.10;99.90;;;;;;5037462;28;20272;-85
2022/11/23 12:56:50;;;;;;;4.75;1.00;;;9.10;99.90;;;;;;5055060;28;20233;-85
2022/11/23 12:59:17;;;;;;;3.33;1.20;;;9.10;99.90;;;;;;5037386;28;20276;-84
2022/11/23 13:01:55;;;;;;;1.95;0.90;;;9.10;99.90;;;;;;5037221;28;20181;-86
2022/11/23 13:04:42;;;;;;;3.83;1.23;;;9.10;99.90;;;;;;5055020;28;20173;-86
2022/11/23 13:07:44;;;;;;;4.75;1.08;;;9.10;99.90;;;;;;5070455;28;20201;-84
2022/11/23 13:10:22;;;;;;;3.70;1.03;;;9.10;99.90;;;;;;5074991;28;20184;-84
2022/11/23 13:13:03;;;;;;;2.42;1.10;;;9.10;99.90;;;;;;5056718;28;20173;-84